sensor_id;sensor_type;location;lat;lon;timestamp;P1;durP1;ratioP1;P2;durP2;ratioP2
75620;SDS011;64574;48.506;-2.750;2023-05-20T00:00:30;9.60;;;3.80;;
75620;SDS011;64574;48.506;-2.750;2023-05-20T00:02:56;9.27;;;3.70;;
75620;SDS011;64574;48.506;-2.750;2023-05-20T00:05:23;7.82;;;3.58;;
75620;SDS011;64574;48.506;-2.750;2023-05-20T00:07:49;10.00;;;3.85;;
75620;SDS011;64574;48.506;-2.750;2023-05-20T00:10:15;8.85;;;3.60;;
75620;SDS011;64574;48.506;-2.750;2023-05-20T00:12:40;8.88;;;3.70;;
75620;SDS011;64574;48.506;-2.750;2023-05-20T00:15:06;7.07;;;3.45;;
75620;SDS011;64574;48.506;-2.750;2023-05-20T00:17:32;9.23;;;3.95;;
75620;SDS011;64574;48.506;-2.750;2023-05-20T00:19:58;9.00;;;4.57;;
75620;SDS011;64574;48.506;-2.750;2023-05-20T00:22:24;10.05;;;4.25;;
75620;SDS011;64574;48.506;-2.750;2023-05-20T00:24:49;9.32;;;3.63;;
75620;SDS011;64574;48.506;-2.750;2023-05-20T00:27:15;6.40;;;3.75;;
75620;SDS011;64574;48.506;-2.750;2023-05-20T00:29:41;8.05;;;3.28;;
75620;SDS011;64574;48.506;-2.750;2023-05-20T00:32:06;8.55;;;4.05;;
75620;SDS011;64574;48.506;-2.750;2023-05-20T00:34:32;8.18;;;3.45;;
75620;SDS011;64574;48.506;-2.750;2023-05-20T00:36:58;10.40;;;3.78;;
75620;SDS011;64574;48.506;-2.750;2023-05-20T00:39:24;6.00;;;3.15;;
75620;SDS011;64574;48.506;-2.750;2023-05-20T00:41:50;8.10;;;3.33;;
75620;SDS011;64574;48.506;-2.750;2023-05-20T00:44:16;9.00;;;3.72;;
75620;SDS011;64574;48.506;-2.750;2023-05-20T00:46:43;9.57;;;3.80;;
75620;SDS011;64574;48.506;-2.750;2023-05-20T00:49:09;6.28;;;3.28;;
75620;SDS011;64574;48.506;-2.750;2023-05-20T00:51:35;8.77;;;3.33;;
75620;SDS011;64574;48.506;-2.750;2023-05-20T00:54:00;9.88;;;3.42;;
75620;SDS011;64574;48.506;-2.750;2023-05-20T00:56:27;8.45;;;3.85;;
75620;SDS011;64574;48.506;-2.750;2023-05-20T00:58:53;5.68;;;3.30;;
75620;SDS011;64574;48.506;-2.750;2023-05-20T01:01:20;8.07;;;3.63;;
75620;SDS011;64574;48.506;-2.750;2023-05-20T01:03:45;8.63;;;3.63;;
75620;SDS011;64574;48.506;-2.750;2023-05-20T01:06:12;10.25;;;3.40;;
75620;SDS011;64574;48.506;-2.750;2023-05-20T01:08:38;8.07;;;3.55;;
75620;SDS011;64574;48.506;-2.750;2023-05-20T01:11:08;8.45;;;3.33;;
75620;SDS011;64574;48.506;-2.750;2023-05-20T01:13:44;7.95;;;3.70;;
75620;SDS011;64574;48.506;-2.750;2023-05-20T01:16:11;8.48;;;3.13;;
75620;SDS011;64574;48.506;-2.750;2023-05-20T01:18:38;8.68;;;3.22;;
75620;SDS011;64574;48.506;-2.750;2023-05-20T01:21:07;7.82;;;3.63;;
75620;SDS011;64574;48.506;-2.750;2023-05-20T01:23:39;10.90;;;3.53;;
75620;SDS011;64574;48.506;-2.750;2023-05-20T01:26:05;7.55;;;3.40;;
75620;SDS011;64574;48.506;-2.750;2023-05-20T01:28:32;10.15;;;3.60;;
75620;SDS011;64574;48.506;-2.750;2023-05-20T01:31:00;6.53;;;3.53;;
75620;SDS011;64574;48.506;-2.750;2023-05-20T01:33:29;10.20;;;3.30;;
75620;SDS011;64574;48.506;-2.750;2023-05-20T01:35:56;5.88;;;3.13;;
75620;SDS011;64574;48.506;-2.750;2023-05-20T01:38:23;7.72;;;3.50;;
75620;SDS011;64574;48.506;-2.750;2023-05-20T01:40:50;6.85;;;3.40;;
75620;SDS011;64574;48.506;-2.750;2023-05-20T01:43:16;10.82;;;3.50;;
75620;SDS011;64574;48.506;-2.750;2023-05-20T01:45:42;7.40;;;3.65;;
75620;SDS011;64574;48.506;-2.750;2023-05-20T01:48:11;10.52;;;3.40;;
75620;SDS011;64574;48.506;-2.750;2023-05-20T01:50:37;8.98;;;3.10;;
75620;SDS011;64574;48.506;-2.750;2023-05-20T01:53:03;8.55;;;3.10;;
75620;SDS011;64574;48.506;-2.750;2023-05-20T01:55:30;9.57;;;3.30;;
75620;SDS011;64574;48.506;-2.750;2023-05-20T01:57:55;6.90;;;3.03;;
75620;SDS011;64574;48.506;-2.750;2023-05-20T02:00:21;8.63;;;3.22;;
75620;SDS011;64574;48.506;-2.750;2023-05-20T02:02:46;9.48;;;3.33;;
75620;SDS011;64574;48.506;-2.750;2023-05-20T02:05:12;7.80;;;3.50;;
75620;SDS011;64574;48.506;-2.750;2023-05-20T02:07:38;8.13;;;3.05;;
75620;SDS011;64574;48.506;-2.750;2023-05-20T02:10:04;8.13;;;2.90;;
75620;SDS011;64574;48.506;-2.750;2023-05-20T02:12:30;6.40;;;2.88;;
75620;SDS011;64574;48.506;-2.750;2023-05-20T02:14:55;10.10;;;3.15;;
75620;SDS011;64574;48.506;-2.750;2023-05-20T02:17:21;11.88;;;3.60;;
75620;SDS011;64574;48.506;-2.750;2023-05-20T02:19:47;8.10;;;3.33;;
75620;SDS011;64574;48.506;-2.750;2023-05-20T02:22:13;11.48;;;3.47;;
75620;SDS011;64574;48.506;-2.750;2023-05-20T02:24:39;8.50;;;3.15;;
75620;SDS011;64574;48.506;-2.750;2023-05-20T02:27:04;6.80;;;3.67;;
75620;SDS011;64574;48.506;-2.750;2023-05-20T02:29:30;9.35;;;3.08;;
75620;SDS011;64574;48.506;-2.750;2023-05-20T02:31:56;6.28;;;2.83;;
75620;SDS011;64574;48.506;-2.750;2023-05-20T02:34:22;7.50;;;3.38;;
75620;SDS011;64574;48.506;-2.750;2023-05-20T02:36:50;8.95;;;3.40;;
75620;SDS011;64574;48.506;-2.750;2023-05-20T02:39:16;9.18;;;3.33;;
75620;SDS011;64574;48.506;-2.750;2023-05-20T02:41:42;7.13;;;3.00;;
75620;SDS011;64574;48.506;-2.750;2023-05-20T02:44:07;5.88;;;3.38;;
75620;SDS011;64574;48.506;-2.750;2023-05-20T02:46:33;5.80;;;3.40;;
75620;SDS011;64574;48.506;-2.750;2023-05-20T02:48:59;9.07;;;3.15;;
75620;SDS011;64574;48.506;-2.750;2023-05-20T02:51:24;9.60;;;3.13;;
75620;SDS011;64574;48.506;-2.750;2023-05-20T02:53:50;7.22;;;3.00;;
75620;SDS011;64574;48.506;-2.750;2023-05-20T02:56:15;11.93;;;3.92;;
75620;SDS011;64574;48.506;-2.750;2023-05-20T02:58:45;8.90;;;3.80;;
75620;SDS011;64574;48.506;-2.750;2023-05-20T03:01:11;8.57;;;3.50;;
75620;SDS011;64574;48.506;-2.750;2023-05-20T03:03:36;10.32;;;3.65;;
75620;SDS011;64574;48.506;-2.750;2023-05-20T03:06:04;6.10;;;3.25;;
75620;SDS011;64574;48.506;-2.750;2023-05-20T03:08:30;11.68;;;3.22;;
75620;SDS011;64574;48.506;-2.750;2023-05-20T03:10:58;7.00;;;3.78;;
75620;SDS011;64574;48.506;-2.750;2023-05-20T03:13:23;7.55;;;3.22;;
75620;SDS011;64574;48.506;-2.750;2023-05-20T03:15:49;8.80;;;3.30;;
75620;SDS011;64574;48.506;-2.750;2023-05-20T03:18:15;7.80;;;3.42;;
75620;SDS011;64574;48.506;-2.750;2023-05-20T03:20:41;10.40;;;3.63;;
75620;SDS011;64574;48.506;-2.750;2023-05-20T03:23:07;7.72;;;3.05;;
75620;SDS011;64574;48.506;-2.750;2023-05-20T03:25:33;8.23;;;3.40;;
75620;SDS011;64574;48.506;-2.750;2023-05-20T03:28:00;7.53;;;3.30;;
75620;SDS011;64574;48.506;-2.750;2023-05-20T03:30:26;6.40;;;3.15;;
75620;SDS011;64574;48.506;-2.750;2023-05-20T03:32:52;7.78;;;3.30;;
75620;SDS011;64574;48.506;-2.750;2023-05-20T03:35:20;9.52;;;3.00;;
75620;SDS011;64574;48.506;-2.750;2023-05-20T03:37:45;8.15;;;3.10;;
75620;SDS011;64574;48.506;-2.750;2023-05-20T03:40:11;8.38;;;3.25;;
75620;SDS011;64574;48.506;-2.750;2023-05-20T03:42:37;8.07;;;3.30;;
75620;SDS011;64574;48.506;-2.750;2023-05-20T03:45:03;9.20;;;3.65;;
75620;SDS011;64574;48.506;-2.750;2023-05-20T03:47:29;10.43;;;3.10;;
75620;SDS011;64574;48.506;-2.750;2023-05-20T03:49:55;8.15;;;3.17;;
75620;SDS011;64574;48.506;-2.750;2023-05-20T03:52:20;8.82;;;3.53;;
75620;SDS011;64574;48.506;-2.750;2023-05-20T03:54:46;8.50;;;3.53;;
75620;SDS011;64574;48.506;-2.750;2023-05-20T03:57:11;9.15;;;3.10;;
75620;SDS011;64574;48.506;-2.750;2023-05-20T03:59:37;9.25;;;2.85;;
75620;SDS011;64574;48.506;-2.750;2023-05-20T04:02:04;9.15;;;3.35;;
75620;SDS011;64574;48.506;-2.750;2023-05-20T04:04:30;6.88;;;3.10;;
75620;SDS011;64574;48.506;-2.750;2023-05-20T04:06:57;5.63;;;3.30;;
75620;SDS011;64574;48.506;-2.750;2023-05-20T04:09:24;7.95;;;3.38;;
75620;SDS011;64574;48.506;-2.750;2023-05-20T04:11:50;8.70;;;3.03;;
75620;SDS011;64574;48.506;-2.750;2023-05-20T04:14:16;5.78;;;2.95;;
75620;SDS011;64574;48.506;-2.750;2023-05-20T04:16:42;5.60;;;2.42;;
75620;SDS011;64574;48.506;-2.750;2023-05-20T04:19:09;8.02;;;3.40;;
75620;SDS011;64574;48.506;-2.750;2023-05-20T04:21:34;9.57;;;3.30;;
75620;SDS011;64574;48.506;-2.750;2023-05-20T04:24:00;6.40;;;3.42;;
75620;SDS011;64574;48.506;-2.750;2023-05-20T04:26:26;7.13;;;2.90;;
75620;SDS011;64574;48.506;-2.750;2023-05-20T04:28:52;7.93;;;3.38;;
75620;SDS011;64574;48.506;-2.750;2023-05-20T04:31:19;7.20;;;3.58;;
75620;SDS011;64574;48.506;-2.750;2023-05-20T04:33:50;9.65;;;3.38;;
75620;SDS011;64574;48.506;-2.750;2023-05-20T04:36:19;5.72;;;3.40;;
75620;SDS011;64574;48.506;-2.750;2023-05-20T04:38:44;6.72;;;3.58;;
75620;SDS011;64574;48.506;-2.750;2023-05-20T04:43:39;7.63;;;3.20;;
75620;SDS011;64574;48.506;-2.750;2023-05-20T04:46:05;10.23;;;3.70;;
75620;SDS011;64574;48.506;-2.750;2023-05-20T04:48:31;7.65;;;3.25;;
75620;SDS011;64574;48.506;-2.750;2023-05-20T04:50:57;8.23;;;3.38;;
75620;SDS011;64574;48.506;-2.750;2023-05-20T04:53:23;8.70;;;3.22;;
75620;SDS011;64574;48.506;-2.750;2023-05-20T04:55:49;5.78;;;2.90;;
75620;SDS011;64574;48.506;-2.750;2023-05-20T04:58:18;8.10;;;3.53;;
75620;SDS011;64574;48.506;-2.750;2023-05-20T05:00:44;6.93;;;3.40;;
75620;SDS011;64574;48.506;-2.750;2023-05-20T05:03:10;8.13;;;3.20;;
75620;SDS011;64574;48.506;-2.750;2023-05-20T05:05:39;8.38;;;3.47;;
75620;SDS011;64574;48.506;-2.750;2023-05-20T05:08:06;10.45;;;3.38;;
75620;SDS011;64574;48.506;-2.750;2023-05-20T05:10:33;12.23;;;3.53;;
75620;SDS011;64574;48.506;-2.750;2023-05-20T05:12:59;5.40;;;3.15;;
75620;SDS011;64574;48.506;-2.750;2023-05-20T05:15:25;9.38;;;2.85;;
75620;SDS011;64574;48.506;-2.750;2023-05-20T05:17:51;10.23;;;3.30;;
75620;SDS011;64574;48.506;-2.750;2023-05-20T05:20:17;6.22;;;3.03;;
75620;SDS011;64574;48.506;-2.750;2023-05-20T05:22:43;6.70;;;3.53;;
75620;SDS011;64574;48.506;-2.750;2023-05-20T05:25:09;9.82;;;3.88;;
75620;SDS011;64574;48.506;-2.750;2023-05-20T05:27:36;9.48;;;3.80;;
75620;SDS011;64574;48.506;-2.750;2023-05-20T05:30:03;11.90;;;3.75;;
75620;SDS011;64574;48.506;-2.750;2023-05-20T05:32:29;12.65;;;4.22;;
75620;SDS011;64574;48.506;-2.750;2023-05-20T05:34:55;9.43;;;4.30;;
75620;SDS011;64574;48.506;-2.750;2023-05-20T05:37:21;8.75;;;4.10;;
75620;SDS011;64574;48.506;-2.750;2023-05-20T05:39:47;9.98;;;4.43;;
75620;SDS011;64574;48.506;-2.750;2023-05-20T05:42:12;12.98;;;4.38;;
75620;SDS011;64574;48.506;-2.750;2023-05-20T05:44:38;12.15;;;4.28;;
75620;SDS011;64574;48.506;-2.750;2023-05-20T05:47:04;9.27;;;3.42;;
75620;SDS011;64574;48.506;-2.750;2023-05-20T05:49:30;11.68;;;4.10;;
75620;SDS011;64574;48.506;-2.750;2023-05-20T05:51:56;9.27;;;3.80;;
75620;SDS011;64574;48.506;-2.750;2023-05-20T05:54:22;12.65;;;3.92;;
75620;SDS011;64574;48.506;-2.750;2023-05-20T05:56:49;6.72;;;3.47;;
75620;SDS011;64574;48.506;-2.750;2023-05-20T05:59:16;10.95;;;4.00;;
75620;SDS011;64574;48.506;-2.750;2023-05-20T06:01:41;9.60;;;4.38;;
75620;SDS011;64574;48.506;-2.750;2023-05-20T06:04:07;11.10;;;4.10;;
75620;SDS011;64574;48.506;-2.750;2023-05-20T06:06:33;11.82;;;4.25;;
75620;SDS011;64574;48.506;-2.750;2023-05-20T06:08:58;11.38;;;4.47;;
75620;SDS011;64574;48.506;-2.750;2023-05-20T06:11:24;12.48;;;4.57;;
75620;SDS011;64574;48.506;-2.750;2023-05-20T06:13:50;10.15;;;4.40;;
75620;SDS011;64574;48.506;-2.750;2023-05-20T06:16:16;9.55;;;4.70;;
75620;SDS011;64574;48.506;-2.750;2023-05-20T06:18:44;12.88;;;5.28;;
75620;SDS011;64574;48.506;-2.750;2023-05-20T06:21:10;10.52;;;5.28;;
75620;SDS011;64574;48.506;-2.750;2023-05-20T06:23:36;9.93;;;5.55;;
75620;SDS011;64574;48.506;-2.750;2023-05-20T06:26:02;10.32;;;4.70;;
75620;SDS011;64574;48.506;-2.750;2023-05-20T06:28:27;11.82;;;4.75;;
75620;SDS011;64574;48.506;-2.750;2023-05-20T06:30:53;13.15;;;5.43;;
75620;SDS011;64574;48.506;-2.750;2023-05-20T06:33:22;11.25;;;4.85;;
75620;SDS011;64574;48.506;-2.750;2023-05-20T06:35:52;12.15;;;5.32;;
75620;SDS011;64574;48.506;-2.750;2023-05-20T06:38:19;14.23;;;4.68;;
75620;SDS011;64574;48.506;-2.750;2023-05-20T06:40:45;11.65;;;4.97;;
75620;SDS011;64574;48.506;-2.750;2023-05-20T06:43:11;9.73;;;4.43;;
75620;SDS011;64574;48.506;-2.750;2023-05-20T06:45:37;11.80;;;4.90;;
75620;SDS011;64574;48.506;-2.750;2023-05-20T06:48:03;11.88;;;4.07;;
75620;SDS011;64574;48.506;-2.750;2023-05-20T06:50:28;11.05;;;3.83;;
75620;SDS011;64574;48.506;-2.750;2023-05-20T06:52:54;11.73;;;3.88;;
75620;SDS011;64574;48.506;-2.750;2023-05-20T06:55:20;12.50;;;4.00;;
75620;SDS011;64574;48.506;-2.750;2023-05-20T06:57:45;11.10;;;4.07;;
75620;SDS011;64574;48.506;-2.750;2023-05-20T07:00:11;7.55;;;3.97;;
75620;SDS011;64574;48.506;-2.750;2023-05-20T07:02:40;11.05;;;3.78;;
75620;SDS011;64574;48.506;-2.750;2023-05-20T07:05:06;11.05;;;3.92;;
75620;SDS011;64574;48.506;-2.750;2023-05-20T07:07:32;6.75;;;3.25;;
75620;SDS011;64574;48.506;-2.750;2023-05-20T07:09:58;13.40;;;4.40;;
75620;SDS011;64574;48.506;-2.750;2023-05-20T07:12:23;12.63;;;4.00;;
75620;SDS011;64574;48.506;-2.750;2023-05-20T07:14:49;10.80;;;4.13;;
75620;SDS011;64574;48.506;-2.750;2023-05-20T07:17:15;10.23;;;3.83;;
75620;SDS011;64574;48.506;-2.750;2023-05-20T07:19:41;11.30;;;3.45;;
75620;SDS011;64574;48.506;-2.750;2023-05-20T07:22:06;10.57;;;3.70;;
75620;SDS011;64574;48.506;-2.750;2023-05-20T07:24:32;7.85;;;3.42;;
75620;SDS011;64574;48.506;-2.750;2023-05-20T07:26:59;9.98;;;3.60;;
75620;SDS011;64574;48.506;-2.750;2023-05-20T07:29:25;7.00;;;3.50;;
75620;SDS011;64574;48.506;-2.750;2023-05-20T07:31:50;12.80;;;3.70;;
75620;SDS011;64574;48.506;-2.750;2023-05-20T07:34:16;13.35;;;3.75;;
75620;SDS011;64574;48.506;-2.750;2023-05-20T07:36:41;11.57;;;3.85;;
75620;SDS011;64574;48.506;-2.750;2023-05-20T07:39:07;10.90;;;3.88;;
75620;SDS011;64574;48.506;-2.750;2023-05-20T07:44:03;9.70;;;3.35;;
75620;SDS011;64574;48.506;-2.750;2023-05-20T07:46:29;10.77;;;3.45;;
75620;SDS011;64574;48.506;-2.750;2023-05-20T07:48:55;13.35;;;3.90;;
75620;SDS011;64574;48.506;-2.750;2023-05-20T07:51:21;12.05;;;3.65;;
75620;SDS011;64574;48.506;-2.750;2023-05-20T07:53:47;13.98;;;4.18;;
75620;SDS011;64574;48.506;-2.750;2023-05-20T07:56:12;8.88;;;3.78;;
75620;SDS011;64574;48.506;-2.750;2023-05-20T07:58:41;8.43;;;3.75;;
75620;SDS011;64574;48.506;-2.750;2023-05-20T08:01:07;9.65;;;3.72;;
75620;SDS011;64574;48.506;-2.750;2023-05-20T08:03:33;9.43;;;3.20;;
75620;SDS011;64574;48.506;-2.750;2023-05-20T08:06:00;8.35;;;3.20;;
75620;SDS011;64574;48.506;-2.750;2023-05-20T08:08:27;10.55;;;3.67;;
75620;SDS011;64574;48.506;-2.750;2023-05-20T08:10:54;10.60;;;3.63;;
75620;SDS011;64574;48.506;-2.750;2023-05-20T08:13:20;7.28;;;3.53;;
75620;SDS011;64574;48.506;-2.750;2023-05-20T08:15:46;7.60;;;3.08;;
75620;SDS011;64574;48.506;-2.750;2023-05-20T08:18:12;8.57;;;3.83;;
75620;SDS011;64574;48.506;-2.750;2023-05-20T08:20:39;11.23;;;3.90;;
75620;SDS011;64574;48.506;-2.750;2023-05-20T08:23:04;7.85;;;3.65;;
75620;SDS011;64574;48.506;-2.750;2023-05-20T08:25:30;11.80;;;3.90;;
75620;SDS011;64574;48.506;-2.750;2023-05-20T08:27:56;9.55;;;3.38;;
75620;SDS011;64574;48.506;-2.750;2023-05-20T08:30:21;10.25;;;3.10;;
75620;SDS011;64574;48.506;-2.750;2023-05-20T08:32:47;9.02;;;3.53;;
75620;SDS011;64574;48.506;-2.750;2023-05-20T08:35:12;8.95;;;3.63;;
75620;SDS011;64574;48.506;-2.750;2023-05-20T08:37:38;12.95;;;4.13;;
75620;SDS011;64574;48.506;-2.750;2023-05-20T08:40:04;9.48;;;3.95;;
75620;SDS011;64574;48.506;-2.750;2023-05-20T08:42:30;10.85;;;3.53;;
75620;SDS011;64574;48.506;-2.750;2023-05-20T08:44:56;10.32;;;3.35;;
75620;SDS011;64574;48.506;-2.750;2023-05-20T08:47:23;11.05;;;3.33;;
75620;SDS011;64574;48.506;-2.750;2023-05-20T08:49:50;9.77;;;3.28;;
75620;SDS011;64574;48.506;-2.750;2023-05-20T08:52:16;8.75;;;2.88;;
75620;SDS011;64574;48.506;-2.750;2023-05-20T08:54:46;11.52;;;4.28;;
75620;SDS011;64574;48.506;-2.750;2023-05-20T08:57:13;8.25;;;3.85;;
75620;SDS011;64574;48.506;-2.750;2023-05-20T08:59:42;9.57;;;3.75;;
75620;SDS011;64574;48.506;-2.750;2023-05-20T09:02:09;11.50;;;3.97;;
75620;SDS011;64574;48.506;-2.750;2023-05-20T09:04:35;12.02;;;4.35;;
75620;SDS011;64574;48.506;-2.750;2023-05-20T09:07:02;12.02;;;3.83;;
75620;SDS011;64574;48.506;-2.750;2023-05-20T09:09:28;9.23;;;3.83;;
75620;SDS011;64574;48.506;-2.750;2023-05-20T09:11:54;10.63;;;4.10;;
75620;SDS011;64574;48.506;-2.750;2023-05-20T09:14:20;9.57;;;4.38;;
75620;SDS011;64574;48.506;-2.750;2023-05-20T09:16:46;9.18;;;4.05;;
75620;SDS011;64574;48.506;-2.750;2023-05-20T09:19:13;10.48;;;4.18;;
75620;SDS011;64574;48.506;-2.750;2023-05-20T09:21:40;8.98;;;4.00;;
75620;SDS011;64574;48.506;-2.750;2023-05-20T09:24:05;17.10;;;4.47;;
75620;SDS011;64574;48.506;-2.750;2023-05-20T09:26:31;13.73;;;3.92;;
75620;SDS011;64574;48.506;-2.750;2023-05-20T09:28:57;6.50;;;3.65;;
75620;SDS011;64574;48.506;-2.750;2023-05-20T09:31:27;14.68;;;4.20;;
75620;SDS011;64574;48.506;-2.750;2023-05-20T09:36:22;9.35;;;3.88;;
75620;SDS011;64574;48.506;-2.750;2023-05-20T09:38:52;8.68;;;4.05;;
75620;SDS011;64574;48.506;-2.750;2023-05-20T09:41:21;11.20;;;3.80;;
75620;SDS011;64574;48.506;-2.750;2023-05-20T09:43:49;15.13;;;4.10;;
75620;SDS011;64574;48.506;-2.750;2023-05-20T09:46:17;12.18;;;3.92;;
75620;SDS011;64574;48.506;-2.750;2023-05-20T09:48:44;12.18;;;4.13;;
75620;SDS011;64574;48.506;-2.750;2023-05-20T09:51:10;11.43;;;4.80;;
75620;SDS011;64574;48.506;-2.750;2023-05-20T09:56:03;16.73;;;4.13;;
75620;SDS011;64574;48.506;-2.750;2023-05-20T09:58:29;9.70;;;4.35;;
75620;SDS011;64574;48.506;-2.750;2023-05-20T10:00:55;10.90;;;4.15;;
75620;SDS011;64574;48.506;-2.750;2023-05-20T10:03:21;12.60;;;4.07;;
75620;SDS011;64574;48.506;-2.750;2023-05-20T10:14:25;11.15;;;4.43;;
75620;SDS011;64574;48.506;-2.750;2023-05-20T10:20:01;10.27;;;4.90;;
75620;SDS011;64574;48.506;-2.750;2023-05-20T10:22:29;9.60;;;4.40;;
75620;SDS011;64574;48.506;-2.750;2023-05-20T10:24:59;12.52;;;4.90;;
75620;SDS011;64574;48.506;-2.750;2023-05-20T10:27:40;11.65;;;4.32;;
75620;SDS011;64574;48.506;-2.750;2023-05-20T10:30:16;9.23;;;4.40;;
75620;SDS011;64574;48.506;-2.750;2023-05-20T10:32:53;14.15;;;4.93;;
75620;SDS011;64574;48.506;-2.750;2023-05-20T10:35:22;11.15;;;5.00;;
75620;SDS011;64574;48.506;-2.750;2023-05-20T10:37:52;12.20;;;5.00;;
75620;SDS011;64574;48.506;-2.750;2023-05-20T10:40:19;11.23;;;4.75;;
75620;SDS011;64574;48.506;-2.750;2023-05-20T10:42:46;13.15;;;5.45;;
75620;SDS011;64574;48.506;-2.750;2023-05-20T10:45:28;9.85;;;4.85;;
75620;SDS011;64574;48.506;-2.750;2023-05-20T10:47:57;13.45;;;4.65;;
75620;SDS011;64574;48.506;-2.750;2023-05-20T10:50:41;12.85;;;5.25;;
75620;SDS011;64574;48.506;-2.750;2023-05-20T10:53:11;10.48;;;4.50;;
75620;SDS011;64574;48.506;-2.750;2023-05-20T10:55:38;11.80;;;5.75;;
75620;SDS011;64574;48.506;-2.750;2023-05-20T10:58:06;11.20;;;5.03;;
75620;SDS011;64574;48.506;-2.750;2023-05-20T11:00:35;8.55;;;4.20;;
75620;SDS011;64574;48.506;-2.750;2023-05-20T11:03:01;9.63;;;4.18;;
75620;SDS011;64574;48.506;-2.750;2023-05-20T11:05:28;10.88;;;4.90;;
75620;SDS011;64574;48.506;-2.750;2023-05-20T11:08:28;16.23;;;5.32;;
75620;SDS011;64574;48.506;-2.750;2023-05-20T11:10:51;12.45;;;5.32;;
75620;SDS011;64574;48.506;-2.750;2023-05-20T11:13:17;11.73;;;5.22;;
75620;SDS011;64574;48.506;-2.750;2023-05-20T11:15:42;11.82;;;5.60;;
75620;SDS011;64574;48.506;-2.750;2023-05-20T11:18:09;12.80;;;5.00;;
75620;SDS011;64574;48.506;-2.750;2023-05-20T11:20:36;14.25;;;6.25;;
75620;SDS011;64574;48.506;-2.750;2023-05-20T11:23:01;15.40;;;5.30;;
75620;SDS011;64574;48.506;-2.750;2023-05-20T11:25:29;10.15;;;5.00;;
75620;SDS011;64574;48.506;-2.750;2023-05-20T11:27:54;13.57;;;5.30;;
75620;SDS011;64574;48.506;-2.750;2023-05-20T11:30:20;13.13;;;5.60;;
75620;SDS011;64574;48.506;-2.750;2023-05-20T11:33:10;19.50;;;6.22;;
75620;SDS011;64574;48.506;-2.750;2023-05-20T11:35:35;12.98;;;5.22;;
75620;SDS011;64574;48.506;-2.750;2023-05-20T11:38:09;11.95;;;4.95;;
75620;SDS011;64574;48.506;-2.750;2023-05-20T11:40:35;12.25;;;5.07;;
75620;SDS011;64574;48.506;-2.750;2023-05-20T11:43:02;12.38;;;5.53;;
75620;SDS011;64574;48.506;-2.750;2023-05-20T11:45:43;16.40;;;5.80;;
75620;SDS011;64574;48.506;-2.750;2023-05-20T11:48:11;17.98;;;6.18;;
75620;SDS011;64574;48.506;-2.750;2023-05-20T11:50:41;10.57;;;5.65;;
75620;SDS011;64574;48.506;-2.750;2023-05-20T11:53:08;11.85;;;5.65;;
75620;SDS011;64574;48.506;-2.750;2023-05-20T11:55:54;16.10;;;5.45;;
75620;SDS011;64574;48.506;-2.750;2023-05-20T11:58:22;15.85;;;5.25;;
75620;SDS011;64574;48.506;-2.750;2023-05-20T12:00:53;13.57;;;5.50;;
75620;SDS011;64574;48.506;-2.750;2023-05-20T12:03:18;15.70;;;6.25;;
75620;SDS011;64574;48.506;-2.750;2023-05-20T12:05:44;14.13;;;6.10;;
75620;SDS011;64574;48.506;-2.750;2023-05-20T12:08:12;10.82;;;5.55;;
75620;SDS011;64574;48.506;-2.750;2023-05-20T12:10:38;11.02;;;4.95;;
75620;SDS011;64574;48.506;-2.750;2023-05-20T12:13:03;16.75;;;5.80;;
75620;SDS011;64574;48.506;-2.750;2023-05-20T12:15:33;11.70;;;6.03;;
75620;SDS011;64574;48.506;-2.750;2023-05-20T12:18:00;20.73;;;6.85;;
75620;SDS011;64574;48.506;-2.750;2023-05-20T12:20:25;14.93;;;6.63;;
75620;SDS011;64574;48.506;-2.750;2023-05-20T12:22:51;13.15;;;6.20;;
75620;SDS011;64574;48.506;-2.750;2023-05-20T12:25:17;11.32;;;5.22;;
75620;SDS011;64574;48.506;-2.750;2023-05-20T12:27:44;15.50;;;6.13;;
75620;SDS011;64574;48.506;-2.750;2023-05-20T12:30:15;9.25;;;4.88;;
75620;SDS011;64574;48.506;-2.750;2023-05-20T12:32:45;14.35;;;5.40;;
75620;SDS011;64574;48.506;-2.750;2023-05-20T12:35:12;12.63;;;5.15;;
75620;SDS011;64574;48.506;-2.750;2023-05-20T12:37:38;15.32;;;5.40;;
75620;SDS011;64574;48.506;-2.750;2023-05-20T12:40:09;15.55;;;5.07;;
75620;SDS011;64574;48.506;-2.750;2023-05-20T12:42:36;14.63;;;6.63;;
75620;SDS011;64574;48.506;-2.750;2023-05-20T12:45:03;13.40;;;6.07;;
75620;SDS011;64574;48.506;-2.750;2023-05-20T12:47:30;12.02;;;4.65;;
75620;SDS011;64574;48.506;-2.750;2023-05-20T12:49:56;14.63;;;5.03;;
75620;SDS011;64574;48.506;-2.750;2023-05-20T12:52:22;15.35;;;5.03;;
75620;SDS011;64574;48.506;-2.750;2023-05-20T12:54:48;10.90;;;5.70;;
75620;SDS011;64574;48.506;-2.750;2023-05-20T12:57:13;17.80;;;5.47;;
75620;SDS011;64574;48.506;-2.750;2023-05-20T12:59:39;13.40;;;5.75;;
75620;SDS011;64574;48.506;-2.750;2023-05-20T13:02:05;18.17;;;6.55;;
75620;SDS011;64574;48.506;-2.750;2023-05-20T13:04:31;21.35;;;6.78;;
75620;SDS011;64574;48.506;-2.750;2023-05-20T13:06:57;14.65;;;5.75;;
75620;SDS011;64574;48.506;-2.750;2023-05-20T13:09:23;12.43;;;5.43;;
75620;SDS011;64574;48.506;-2.750;2023-05-20T13:11:48;15.77;;;6.45;;
75620;SDS011;64574;48.506;-2.750;2023-05-20T13:14:14;17.02;;;6.85;;
75620;SDS011;64574;48.506;-2.750;2023-05-20T13:16:39;16.20;;;6.30;;
75620;SDS011;64574;48.506;-2.750;2023-05-20T13:19:05;18.88;;;7.03;;
75620;SDS011;64574;48.506;-2.750;2023-05-20T13:21:31;12.93;;;5.13;;
75620;SDS011;64574;48.506;-2.750;2023-05-20T13:23:57;15.25;;;6.60;;
75620;SDS011;64574;48.506;-2.750;2023-05-20T13:26:23;18.70;;;6.70;;
75620;SDS011;64574;48.506;-2.750;2023-05-20T13:28:49;15.70;;;6.10;;
75620;SDS011;64574;48.506;-2.750;2023-05-20T13:31:14;13.07;;;5.68;;
75620;SDS011;64574;48.506;-2.750;2023-05-20T13:33:40;16.40;;;6.63;;
75620;SDS011;64574;48.506;-2.750;2023-05-20T13:36:06;15.30;;;5.47;;
75620;SDS011;64574;48.506;-2.750;2023-05-20T13:38:32;12.32;;;5.25;;
75620;SDS011;64574;48.506;-2.750;2023-05-20T13:40:57;16.40;;;6.05;;
75620;SDS011;64574;48.506;-2.750;2023-05-20T13:43:23;15.82;;;6.10;;
75620;SDS011;64574;48.506;-2.750;2023-05-20T13:45:50;15.10;;;5.75;;
75620;SDS011;64574;48.506;-2.750;2023-05-20T13:48:16;14.48;;;6.07;;
75620;SDS011;64574;48.506;-2.750;2023-05-20T13:50:42;15.52;;;7.10;;
75620;SDS011;64574;48.506;-2.750;2023-05-20T13:53:08;13.60;;;6.32;;
75620;SDS011;64574;48.506;-2.750;2023-05-20T13:55:38;18.05;;;6.78;;
75620;SDS011;64574;48.506;-2.750;2023-05-20T13:58:04;17.30;;;7.50;;
75620;SDS011;64574;48.506;-2.750;2023-05-20T14:00:33;15.30;;;7.10;;
75620;SDS011;64574;48.506;-2.750;2023-05-20T14:03:00;17.08;;;7.07;;
75620;SDS011;64574;48.506;-2.750;2023-05-20T14:05:28;16.60;;;7.75;;
75620;SDS011;64574;48.506;-2.750;2023-05-20T14:07:57;20.13;;;7.55;;
75620;SDS011;64574;48.506;-2.750;2023-05-20T14:10:23;18.85;;;7.90;;
75620;SDS011;64574;48.506;-2.750;2023-05-20T14:12:50;17.40;;;7.53;;
75620;SDS011;64574;48.506;-2.750;2023-05-20T14:15:16;17.20;;;6.95;;
75620;SDS011;64574;48.506;-2.750;2023-05-20T14:17:42;16.92;;;7.43;;
75620;SDS011;64574;48.506;-2.750;2023-05-20T14:20:08;13.90;;;5.88;;
75620;SDS011;64574;48.506;-2.750;2023-05-20T14:22:34;13.23;;;5.97;;
75620;SDS011;64574;48.506;-2.750;2023-05-20T14:25:00;13.65;;;6.10;;
75620;SDS011;64574;48.506;-2.750;2023-05-20T14:27:26;19.48;;;7.45;;
75620;SDS011;64574;48.506;-2.750;2023-05-20T14:29:53;21.77;;;7.03;;
75620;SDS011;64574;48.506;-2.750;2023-05-20T14:32:19;18.13;;;6.80;;
75620;SDS011;64574;48.506;-2.750;2023-05-20T14:34:44;23.40;;;8.68;;
75620;SDS011;64574;48.506;-2.750;2023-05-20T14:37:10;15.68;;;6.78;;
75620;SDS011;64574;48.506;-2.750;2023-05-20T14:39:36;15.13;;;7.20;;
75620;SDS011;64574;48.506;-2.750;2023-05-20T14:42:02;18.45;;;8.13;;
75620;SDS011;64574;48.506;-2.750;2023-05-20T14:44:28;18.98;;;7.35;;
75620;SDS011;64574;48.506;-2.750;2023-05-20T14:46:54;19.45;;;8.18;;